Aviation Digital Data Service (ADDS)

Output produced by METARs form (2015 UTC 30 August 2014)
found at http://aviationweather.gov/adds/metars/
 
KGSO 301726Z 3018/3118 18004KT P6SM BKN050 
     FM310800 00000KT 5SM BR SCT007 
     FM311300 22005KT P6SM SCT040 BKN250